Flight Track Log - Related Links

Times and Time Zones

All times are in EDT time to prevent confusion due to time zone crossing. See the ASQ6151 flight status page for this flight to view local times or setup timezone preferences in your user account.

Time Position Orientation Groundspeed Altitude Reporting Facility
EDT Latitude Longitude Course Direction KTS MPH feet Rate Location/Type
Wed 02:48:05 PM 41.9667 -87.8667 169° South 176 203 2,200  Level Chicago TRACON
Wed 02:48:59 PM 41.9333 -87.8167 132° Southeast 235 270 3,700 1,839 Climbing Chicago TRACON
Wed 02:50:00 PM 41.8362 -87.5002 157° South  Level Estimated
Wed 02:50:09 PM 41.8556 -87.7975 170° South 245 282 6,000  Level Chicago Center
Wed 02:51:00 PM 41.7874 -87.3652 156° South  Level Estimated
Wed 02:51:12 PM 41.7833 -87.7931 177° South 258 297 8,200  Level Chicago Center
Wed 02:52:00 PM 41.6867 -87.4305 206° Southwest  Level FlightAware Approximate
Wed 02:52:14 PM 41.6919 -87.7808 174° South 273 314 10,700  Level Chicago Center
Wed 02:53:00 PM 41.6390 -87.2951 169° South  Level Estimated
Wed 02:53:16 PM 41.6181 -87.7258 151° Southeast 304 350 12,300  Level Chicago Center
Wed 02:54:18 PM 41.5453 -87.6675 149° Southeast 305 351 14,100 1,645 Climbing Chicago Center
Wed 02:55:20 PM 41.4700 -87.6081 149° Southeast 311 358 15,700 1,210 Climbing Chicago Center
Wed 02:56:22 PM 41.3844 -87.5664 160° South 336 387 16,600 968 Climbing Chicago Center
Wed 02:57:24 PM 41.2903 -87.5494 172° South 340 391 17,700 1,113 Climbing Chicago Center
Wed 02:58:26 PM 41.1928 -87.5314 172° South 350 403 18,900 1,258 Climbing Chicago Center
Wed 02:59:28 PM 41.0744 -87.4989 168° South 361 415 20,300 1,161 Climbing Chicago Center
Wed 03:00:30 PM 40.9728 -87.4719 169° South 370 426 21,300 912 Climbing Chicago Center
Wed 03:01:33 PM 40.8689 -87.4439 168° South 379 436 22,200 960 Climbing Chicago Center
Wed 03:02:35 PM 40.7642 -87.4164 169° South 383 441 23,300 968 Climbing Chicago Center
Wed 03:03:37 PM 40.6603 -87.3886 169° South 383 441 24,200 823 Climbing Chicago Center
Wed 03:04:39 PM 40.5317 -87.3553 169° South 392 451 25,000 774 Climbing Chicago Center
Wed 03:05:41 PM 40.4275 -87.3092 161° South 406 467 25,800 871 Climbing Chicago Center
Wed 03:06:43 PM 40.3353 -87.2278 146° Southeast 403 464 26,800 919 Climbing Chicago Center
Wed 03:07:45 PM 40.2442 -87.1419 144° Southeast 404 465 27,700 919 Climbing Chicago Center
Wed 03:08:47 PM 40.1539 -87.0583 145° Southeast 402 463 28,700 1,069 Climbing Chicago Center
Wed 03:09:26 PM 40.0778 -86.9875 145° Southeast 402 463 29,500 1,010 Climbing Indianapolis Center
Wed 03:10:28 PM 39.9875 -86.9039 145° Southeast 399 459 30,400 726 Climbing Indianapolis Center
Wed 03:11:30 PM 39.8925 -86.8261 148° Southeast 399 459 31,000 290 Climbing Indianapolis Center
Wed 03:12:32 PM 39.7947 -86.7408 146° Southeast 416 479 31,000  Level Indianapolis Center
Wed 03:13:34 PM 39.7247 -86.5972 122° Southeast 459 528 31,000  Level Indianapolis Center
Wed 03:14:36 PM 39.6578 -86.4503 121° Southeast 468 539 31,000  Level Indianapolis Center
Wed 03:15:39 PM 39.5889 -86.3011 121° Southeast 478 550 31,000  Level Indianapolis Center
Wed 03:16:41 PM 39.5222 -86.1536 120° Southeast 474 545 31,000  Level Indianapolis Center
Wed 03:17:43 PM 39.4433 -85.9831 121° Southeast 459 528 31,000  Level Indianapolis Center
Wed 03:18:45 PM 39.3783 -85.8408 121° Southeast 458 527 31,000  Level Indianapolis Center
Wed 03:19:47 PM 39.3125 -85.6989 121° Southeast 459 528 31,000  Level Indianapolis Center
Wed 03:20:49 PM 39.2494 -85.5644 121° Southeast 464 534 31,000  Level Indianapolis Center
Wed 03:21:51 PM 39.1703 -85.3958 121° Southeast 467 537 31,000  Level Indianapolis Center
Wed 03:22:53 PM 39.1108 -85.2694 121° Southeast 461 531 31,000  Level Indianapolis Center
Wed 03:23:55 PM 39.0447 -85.1311 122° Southeast 454 522 31,000  Level Indianapolis Center
Wed 03:24:57 PM 38.9658 -84.9664 122° Southeast 449 517 31,000  Level Indianapolis Center
Wed 03:25:59 PM 38.9006 -84.8289 121° Southeast 454 522 31,000  Level Indianapolis Center
Wed 03:27:01 PM 38.8322 -84.6900 122° Southeast 460 529 31,000  Level Indianapolis Center
Wed 03:28:03 PM 38.7642 -84.5489 122° Southeast 463 533 31,000  Level Indianapolis Center
Wed 03:29:05 PM 38.6894 -84.3919 121° Southeast 467 537 31,000  Level Indianapolis Center
Wed 03:30:07 PM 38.6403 -84.2250 111° Southeast 482 555 31,000  Level Indianapolis Center
Wed 03:31:10 PM 38.6222 -84.0586 98° East 474 545 31,000  Level Indianapolis Center
Wed 03:32:12 PM 38.6042 -83.8900 98° East 476 548 31,000  Level Indianapolis Center
Wed 03:33:14 PM 38.5847 -83.7219 98° East 477 549 31,000  Level Indianapolis Center
Wed 03:34:16 PM 38.5661 -83.5528 98° East 480 552 31,000  Level Indianapolis Center
Wed 03:35:18 PM 38.5461 -83.3850 99° East 478 550 31,000  Level Indianapolis Center
Wed 03:36:20 PM 38.5242 -83.1892 98° East 478 550 31,000  Level Indianapolis Center
Wed 03:37:22 PM 38.4950 -83.0261 103° East 473 544 31,000  Level Indianapolis Center
Wed 03:38:24 PM 38.4644 -82.8614 103° East 474 545 31,000  Level Indianapolis Center
Wed 03:39:26 PM 38.4414 -82.6958 100° East 472 543 31,000  Level Indianapolis Center
Wed 03:40:28 PM 38.4206 -82.5289 99° East 475 547 31,000  Level Indianapolis Center
Wed 03:41:30 PM 38.4011 -82.3706 99° East 470 541 31,000  Level Indianapolis Center
Wed 03:42:32 PM 38.3758 -82.1744 99° East 469 540 31,000  Level Indianapolis Center
Wed 03:43:34 PM 38.3561 -82.0136 99° East 465 535 31,000  Level Indianapolis Center
Wed 03:44:36 PM 38.3356 -81.8511 99° East 467 537 31,000  Level Indianapolis Center
Wed 03:45:39 PM 38.3139 -81.6892 100° East 468 539 31,000  Level Indianapolis Center
Wed 03:46:41 PM 38.2922 -81.5278 100° East 468 539 31,000  Level Indianapolis Center
Wed 03:47:43 PM 38.2653 -81.3342 100° East 469 540 31,000  Level Indianapolis Center
Wed 03:48:45 PM 38.2433 -81.1706 100° East 471 542 31,000  Level Indianapolis Center
Wed 03:49:47 PM 38.2217 -81.0083 100° East 469 540 31,000  Level Indianapolis Center
Wed 03:50:49 PM 38.1986 -80.8442 100° East 474 545 31,000  Level Indianapolis Center
Wed 03:51:51 PM 38.1731 -80.6797 101° East 475 547 31,000  Level Indianapolis Center
Wed 03:52:15 PM 38.1583 -80.5989 103° East 469 540 31,000  Level Washington Center
Wed 03:53:15 PM 38.1317 -80.4358 102° East 469 540 31,000 -300 Level Washington Center
Wed 03:54:15 PM 38.1086 -80.2867 101° East 474 545 30,400 -1,017 Descending Washington Center
Wed 03:55:13 PM 38.0814 -80.1267 102° East 469 540 29,000 -1,412 Descending Washington Center
Wed 03:56:14 PM 38.0539 -79.9667 102° East 469 540 27,600 -984 Descending Washington Center
Wed 03:57:15 PM 38.0242 -79.8069 103° East 463 533 27,000 -303 Descending Washington Center
Wed 03:58:13 PM 37.9983 -79.6472 102° East 463 533 27,000  Level Washington Center
Wed 03:59:13 PM 37.9689 -79.4692 102° East 463 533 27,000 -250 Level Washington Center
Wed 04:00:13 PM 37.9386 -79.3069 103° East 463 533 26,500 -1,041 Descending Washington Center
Wed 04:01:14 PM 37.9100 -79.1450 103° East 468 539 24,900 -1,230 Descending Washington Center
Wed 04:02:15 PM 37.8708 -78.9878 107° East 462 532 24,000 -694 Descending Washington Center
Wed 04:03:15 PM 37.8250 -78.8361 111° Southeast 462 532 23,500 -508 Descending Washington Center
Wed 04:04:13 PM 37.7869 -78.7003 109° East 462 532 23,000 -252 Descending Washington Center
Wed 04:05:14 PM 37.7428 -78.5489 110° East 462 532 23,000 -492 Level Washington Center
Wed 04:06:15 PM 37.6964 -78.3922 110° East 462 532 22,000 -1,008 Descending Washington Center
Wed 04:07:13 PM 37.6539 -78.2411 110° East 457 526 21,000 -504 Descending Washington Center
Wed 04:08:14 PM 37.6011 -78.0794 112° Southeast 457 526 21,000 -443 Level Washington Center
Wed 04:09:15 PM 37.5603 -77.9339 109° East 457 526 20,100 -1,190 Descending Washington Center
Wed 04:10:15 PM 37.5275 -77.7836 105° East 451 519 18,600 -1,068 Descending Washington Center
Wed 04:11:13 PM 37.5156 -77.6367 96° East 431 496 18,000 -908 Descending Washington Center
Wed 04:12:14 PM 37.5053 -77.4950 95° East 420 483 16,800 -992 Descending Washington Center
Wed 04:13:14 PM 37.4969 -77.3667 95° East 392 451 16,000 -397 Descending Washington Center
Wed 04:14:15 PM 37.4864 -77.2303 96° East 385 443 16,000 -58 Level Washington Center
Wed 04:14:58 PM 37.4794 -77.1253 95° East 421 484 15,900 -621 Descending Washington Center
Wed 04:15:13 PM 37.4736 -77.0886 101° East 396 456 15,400 -2,000 Descending Washington Center
Wed 04:15:43 PM 37.4700 -77.0258 94° East 415 478 14,400 -1,377 Descending Washington Center
Wed 04:16:14 PM 37.4625 -76.9656 99° East 404 465 14,000 -393 Descending Washington Center
Wed 04:16:44 PM 37.4611 -76.8922 91° East 389 448 14,000  Level Washington Center
Wed 04:17:14 PM 37.4533 -76.8450 102° East 389 448 14,000 100 Level Washington Center
Wed 04:17:44 PM 37.4503 -76.7508 92° East 376 433 14,100  Climbing Washington Center
Wed 04:18:15 PM 37.4464 -76.6983 95° East 384 442 14,000  Descending Washington Center
Wed 04:18:45 PM 37.4347 -76.6222 101° East 372 428 14,100  Climbing Washington Center
Wed 04:19:13 PM 37.4267 -76.5700 101° East 379 436 14,000  Descending Washington Center
Wed 04:19:37 PM 37.4169 -76.5017 100° East 383 441 14,100  Climbing Washington Center
Wed 04:20:14 PM 37.4089 -76.4339 98° East 379 436 14,000 -94 Descending Washington Center
Wed 04:20:41 PM 37.3781 -76.3733 123° Southeast 409 471 14,000 -400 Level Washington Center
Wed 04:21:14 PM 37.3408 -76.3364 142° Southeast 372 428 13,600 -1,254 Descending Washington Center
Wed 04:21:48 PM 37.2889 -76.2992 150° Southeast 336 387 12,600 -1,475 Descending Washington Center
Wed 04:22:15 PM 37.2597 -76.2731 145° Southeast 344 396 12,100 -1,527 Descending Washington Center
Wed 04:22:43 PM 37.2183 -76.2464 153° Southeast 318 366 11,200 -1,138 Descending Washington Center
Wed 04:23:13 PM 37.1850 -76.2150 143° Southeast 332 382 11,000 -492 Descending Washington Center
Wed 04:23:44 PM 37.1456 -76.1886 152° Southeast 296 341 10,700 -984 Descending Washington Center
Wed 04:24:14 PM 37.1164 -76.1622 144° Southeast 306 352 10,000 -2,000 Descending Washington Center
Wed 04:24:44 PM 37.0747 -76.1333 151° Southeast 281 323 8,700 -2,118 Descending Washington Center
Wed 04:25:39 PM 37.0142 -76.1617 200° South 269 310 7,000 -1,855 Descending Washington Center

Login

Don't have an account? Register now (free) for customized features, flight alerts, and more!